Smithers, Canada
Current Conditions -  °F | °C
As of 6:27 AM on Thursday 27 Nov 2014 (Local Time) from CYYD Reporting Station
Light Snow Light Snow  
Wind Chill: 25°   Ceiling: 4200
Heat Index: 25°   Visibility: NA
Dew Point: 23°   Wind: 0mph
Humidity: 93%   Direction: NA
Pressure: 29.76"   Gusts: NA
Location:  54.78°N, 127.17°W
Report Text: CYYD 271427Z AUTO 00000KT -SN OVC042 M04/M05 A2976 RMK WX MISG VIS MISG SLP103
Loading
Personal Weather Stations






























Interactive Weather Map New forecast layout! Learn more

10-Day Weather Forecast

Advertisements
Track Severe Weather on mobile